sensor_id;sensor_type;location;lat;lon;timestamp;pressure;altitude;pressure_sealevel;temperature;humidity
6134;BME280;3098;42.678;23.364;2022-07-10T00:00:56;94819.84;;;15.64;100.00
6134;BME280;3098;42.678;23.364;2022-07-10T00:03:23;94791.97;;;15.37;100.00
6134;BME280;3098;42.678;23.364;2022-07-10T00:05:52;94815.66;;;15.50;100.00
6134;BME280;3098;42.678;23.364;2022-07-10T00:08:18;94823.44;;;15.56;100.00
6134;BME280;3098;42.678;23.364;2022-07-10T00:10:46;94822.44;;;15.60;100.00
6134;BME280;3098;42.678;23.364;2022-07-10T00:13:13;94823.75;;;15.66;100.00
6134;BME280;3098;42.678;23.364;2022-07-10T00:15:41;94812.56;;;15.48;100.00
6134;BME280;3098;42.678;23.364;2022-07-10T00:18:08;94802.97;;;15.47;100.00
6134;BME280;3098;42.678;23.364;2022-07-10T00:20:35;94810.66;;;15.49;100.00
6134;BME280;3098;42.678;23.364;2022-07-10T00:23:04;94793.53;;;15.38;100.00
6134;BME280;3098;42.678;23.364;2022-07-10T00:25:31;94793.72;;;15.45;100.00
6134;BME280;3098;42.678;23.364;2022-07-10T00:27:59;94808.31;;;15.47;100.00
6134;BME280;3098;42.678;23.364;2022-07-10T00:30:26;94801.03;;;15.60;100.00
6134;BME280;3098;42.678;23.364;2022-07-10T00:32:53;94797.91;;;15.58;100.00
6134;BME280;3098;42.678;23.364;2022-07-10T00:35:20;94811.19;;;15.55;100.00
6134;BME280;3098;42.678;23.364;2022-07-10T00:37:47;94807.63;;;15.50;100.00
6134;BME280;3098;42.678;23.364;2022-07-10T00:40:16;94793.28;;;15.43;100.00
6134;BME280;3098;42.678;23.364;2022-07-10T00:42:45;94479.94;;;13.45;100.00
6134;BME280;3098;42.678;23.364;2022-07-10T00:45:12;94793.28;;;15.43;100.00
6134;BME280;3098;42.678;23.364;2022-07-10T00:47:39;94788.50;;;15.48;100.00
6134;BME280;3098;42.678;23.364;2022-07-10T00:50:09;94759.16;;;15.24;100.00
6134;BME280;3098;42.678;23.364;2022-07-10T00:52:38;94789.16;;;15.45;100.00
6134;BME280;3098;42.678;23.364;2022-07-10T00:55:06;94788.25;;;15.41;100.00
6134;BME280;3098;42.678;23.364;2022-07-10T00:57:37;94785.59;;;15.41;100.00
6134;BME280;3098;42.678;23.364;2022-07-10T01:00:06;94786.72;;;15.40;100.00
6134;BME280;3098;42.678;23.364;2022-07-10T01:02:35;94777.41;;;15.34;100.00
6134;BME280;3098;42.678;23.364;2022-07-10T01:05:02;94782.31;;;15.32;100.00
6134;BME280;3098;42.678;23.364;2022-07-10T01:07:29;94782.53;;;15.27;100.00
6134;BME280;3098;42.678;23.364;2022-07-10T01:09:57;94772.34;;;15.17;100.00
6134;BME280;3098;42.678;23.364;2022-07-10T01:12:25;94781.84;;;15.30;100.00
6134;BME280;3098;42.678;23.364;2022-07-10T01:14:54;94723.03;;;14.87;100.00
6134;BME280;3098;42.678;23.364;2022-07-10T01:17:22;94770.97;;;15.23;100.00
6134;BME280;3098;42.678;23.364;2022-07-10T01:19:50;94769.09;;;15.24;100.00
6134;BME280;3098;42.678;23.364;2022-07-10T01:22:18;94784.53;;;15.30;100.00
6134;BME280;3098;42.678;23.364;2022-07-10T01:24:45;94778.94;;;15.35;100.00
6134;BME280;3098;42.678;23.364;2022-07-10T01:27:13;94772.38;;;15.33;100.00
6134;BME280;3098;42.678;23.364;2022-07-10T01:29:40;94766.34;;;15.36;100.00
6134;BME280;3098;42.678;23.364;2022-07-10T01:32:07;94754.16;;;15.23;100.00
6134;BME280;3098;42.678;23.364;2022-07-10T01:34:35;94769.63;;;15.29;100.00
6134;BME280;3098;42.678;23.364;2022-07-10T01:37:02;94760.72;;;15.25;100.00
6134;BME280;3098;42.678;23.364;2022-07-10T01:39:31;94754.94;;;15.23;100.00
6134;BME280;3098;42.678;23.364;2022-07-10T01:41:58;94757.88;;;15.18;100.00
6134;BME280;3098;42.678;23.364;2022-07-10T01:44:25;94758.53;;;15.15;100.00
6134;BME280;3098;42.678;23.364;2022-07-10T01:46:51;94683.56;;;14.68;100.00
6134;BME280;3098;42.678;23.364;2022-07-10T01:49:18;94713.44;;;14.86;100.00
6134;BME280;3098;42.678;23.364;2022-07-10T01:51:46;94722.97;;;14.99;100.00
6134;BME280;3098;42.678;23.364;2022-07-10T01:54:13;94712.00;;;14.88;100.00
6134;BME280;3098;42.678;23.364;2022-07-10T01:56:42;94708.66;;;14.91;100.00
6134;BME280;3098;42.678;23.364;2022-07-10T01:59:09;94721.66;;;14.93;100.00
6134;BME280;3098;42.678;23.364;2022-07-10T02:01:36;94737.09;;;15.00;100.00
6134;BME280;3098;42.678;23.364;2022-07-10T02:04:04;94732.97;;;15.02;100.00
6134;BME280;3098;42.678;23.364;2022-07-10T02:06:48;94722.25;;;14.86;100.00
6134;BME280;3098;42.678;23.364;2022-07-10T02:09:15;94749.78;;;15.03;100.00
6134;BME280;3098;42.678;23.364;2022-07-10T02:11:43;94744.78;;;15.01;100.00
6134;BME280;3098;42.678;23.364;2022-07-10T02:14:10;94727.34;;;14.91;100.00
6134;BME280;3098;42.678;23.364;2022-07-10T02:16:37;94744.88;;;15.05;100.00
6134;BME280;3098;42.678;23.364;2022-07-10T02:19:04;94747.47;;;15.01;100.00
6134;BME280;3098;42.678;23.364;2022-07-10T02:21:31;94747.47;;;15.01;100.00
6134;BME280;3098;42.678;23.364;2022-07-10T02:23:58;94726.56;;;14.91;100.00
6134;BME280;3098;42.678;23.364;2022-07-10T02:26:25;94731.22;;;14.94;100.00
6134;BME280;3098;42.678;23.364;2022-07-10T02:28:54;94737.88;;;15.00;100.00
6134;BME280;3098;42.678;23.364;2022-07-10T02:31:21;94638.50;;;14.27;100.00
6134;BME280;3098;42.678;23.364;2022-07-10T02:33:48;94744.25;;;14.95;100.00
6134;BME280;3098;42.678;23.364;2022-07-10T02:36:15;94736.31;;;14.99;100.00
6134;BME280;3098;42.678;23.364;2022-07-10T02:38:42;94735.09;;;14.96;100.00
6134;BME280;3098;42.678;23.364;2022-07-10T02:41:09;94740.69;;;14.91;100.00
6134;BME280;3098;42.678;23.364;2022-07-10T02:43:37;94725.03;;;14.78;100.00
6134;BME280;3098;42.678;23.364;2022-07-10T02:46:05;94705.72;;;14.69;100.00
6134;BME280;3098;42.678;23.364;2022-07-10T02:48:32;94747.72;;;14.84;100.00
6134;BME280;3098;42.678;23.364;2022-07-10T02:51:00;94745.13;;;14.87;100.00
6134;BME280;3098;42.678;23.364;2022-07-10T02:53:27;94747.25;;;14.94;100.00
6134;BME280;3098;42.678;23.364;2022-07-10T02:55:54;94741.38;;;14.88;100.00
6134;BME280;3098;42.678;23.364;2022-07-10T02:58:21;94753.25;;;14.91;100.00
6134;BME280;3098;42.678;23.364;2022-07-10T03:00:48;94735.06;;;14.81;100.00
6134;BME280;3098;42.678;23.364;2022-07-10T03:03:17;94717.59;;;14.71;100.00
6134;BME280;3098;42.678;23.364;2022-07-10T03:05:44;94736.94;;;14.80;100.00
6134;BME280;3098;42.678;23.364;2022-07-10T03:08:11;94757.03;;;14.90;100.00
6134;BME280;3098;42.678;23.364;2022-07-10T03:10:39;94755.94;;;14.91;100.00
6134;BME280;3098;42.678;23.364;2022-07-10T03:13:06;94761.13;;;15.00;100.00
6134;BME280;3098;42.678;23.364;2022-07-10T03:15:33;94765.63;;;14.95;100.00
6134;BME280;3098;42.678;23.364;2022-07-10T03:17:59;94766.91;;;15.02;100.00
6134;BME280;3098;42.678;23.364;2022-07-10T03:20:28;94762.75;;;15.16;100.00
6134;BME280;3098;42.678;23.364;2022-07-10T03:22:56;94775.69;;;15.42;100.00
6134;BME280;3098;42.678;23.364;2022-07-10T03:25:22;94776.81;;;15.69;100.00
6134;BME280;3098;42.678;23.364;2022-07-10T03:27:49;94767.44;;;15.75;100.00
6134;BME280;3098;42.678;23.364;2022-07-10T03:30:17;94778.56;;;15.77;100.00
6134;BME280;3098;42.678;23.364;2022-07-10T03:32:45;94768.56;;;15.74;100.00
6134;BME280;3098;42.678;23.364;2022-07-10T03:35:12;94771.31;;;15.77;100.00
6134;BME280;3098;42.678;23.364;2022-07-10T03:37:40;94754.28;;;15.70;100.00
6134;BME280;3098;42.678;23.364;2022-07-10T03:40:09;94718.34;;;15.39;100.00
6134;BME280;3098;42.678;23.364;2022-07-10T03:42:36;94770.34;;;15.70;100.00
6134;BME280;3098;42.678;23.364;2022-07-10T03:45:04;94769.22;;;15.71;100.00
6134;BME280;3098;42.678;23.364;2022-07-10T03:47:31;94748.25;;;15.57;100.00
6134;BME280;3098;42.678;23.364;2022-07-10T03:49:58;94778.41;;;15.85;100.00
6134;BME280;3098;42.678;23.364;2022-07-10T03:52:25;94742.69;;;15.78;100.00
6134;BME280;3098;42.678;23.364;2022-07-10T03:54:55;94748.63;;;15.87;100.00
6134;BME280;3098;42.678;23.364;2022-07-10T03:57:22;94766.41;;;16.10;100.00
6134;BME280;3098;42.678;23.364;2022-07-10T04:00:08;94753.91;;;16.81;100.00
6134;BME280;3098;42.678;23.364;2022-07-10T04:02:35;94760.03;;;17.54;100.00
6134;BME280;3098;42.678;23.364;2022-07-10T04:05:04;94755.03;;;17.95;100.00
6134;BME280;3098;42.678;23.364;2022-07-10T04:07:32;94759.09;;;18.08;100.00
6134;BME280;3098;42.678;23.364;2022-07-10T04:10:01;94751.31;;;18.25;100.00
6134;BME280;3098;42.678;23.364;2022-07-10T04:12:28;94755.56;;;18.04;100.00
6134;BME280;3098;42.678;23.364;2022-07-10T04:14:55;94755.38;;;18.61;100.00
6134;BME280;3098;42.678;23.364;2022-07-10T04:17:22;94759.34;;;18.71;100.00
6134;BME280;3098;42.678;23.364;2022-07-10T04:19:49;94746.06;;;18.81;100.00
6134;BME280;3098;42.678;23.364;2022-07-10T04:22:16;94753.13;;;19.23;100.00
6134;BME280;3098;42.678;23.364;2022-07-10T04:24:43;94727.53;;;19.66;97.05
6134;BME280;3098;42.678;23.364;2022-07-10T04:27:12;94753.72;;;20.13;95.36
6134;BME280;3098;42.678;23.364;2022-07-10T04:29:40;94750.28;;;20.56;92.91
6134;BME280;3098;42.678;23.364;2022-07-10T04:32:08;94740.91;;;20.94;88.35
6134;BME280;3098;42.678;23.364;2022-07-10T04:34:35;94727.19;;;21.16;87.18
6134;BME280;3098;42.678;23.364;2022-07-10T04:37:02;94740.13;;;20.93;85.65
6134;BME280;3098;42.678;23.364;2022-07-10T04:39:29;94749.94;;;21.26;85.47
6134;BME280;3098;42.678;23.364;2022-07-10T04:41:56;94744.81;;;21.93;82.66
6134;BME280;3098;42.678;23.364;2022-07-10T04:44:25;94617.75;;;21.15;81.44
6134;BME280;3098;42.678;23.364;2022-07-10T04:46:52;94745.22;;;22.23;81.55
6134;BME280;3098;42.678;23.364;2022-07-10T04:49:19;94750.25;;;22.25;79.78
6134;BME280;3098;42.678;23.364;2022-07-10T04:51:46;94719.75;;;22.21;78.32
6134;BME280;3098;42.678;23.364;2022-07-10T04:56:40;94749.84;;;22.58;78.24
6134;BME280;3098;42.678;23.364;2022-07-10T04:59:07;94745.53;;;23.10;75.57
6134;BME280;3098;42.678;23.364;2022-07-10T05:01:36;94752.97;;;22.64;76.23
6134;BME280;3098;42.678;23.364;2022-07-10T05:04:04;94750.22;;;22.88;74.35
6134;BME280;3098;42.678;23.364;2022-07-10T05:06:31;94757.56;;;22.92;74.44
6134;BME280;3098;42.678;23.364;2022-07-10T05:08:58;94755.00;;;23.75;72.35
6134;BME280;3098;42.678;23.364;2022-07-10T05:11:26;94760.13;;;23.52;72.21
6134;BME280;3098;42.678;23.364;2022-07-10T05:13:53;94705.44;;;22.49;74.65
6134;BME280;3098;42.678;23.364;2022-07-10T05:16:20;94751.94;;;23.66;72.08
6134;BME280;3098;42.678;23.364;2022-07-10T05:18:48;94750.75;;;23.74;70.19
6134;BME280;3098;42.678;23.364;2022-07-10T05:21:15;94754.25;;;23.67;69.52
6134;BME280;3098;42.678;23.364;2022-07-10T05:23:43;94690.31;;;22.94;70.68
6134;BME280;3098;42.678;23.364;2022-07-10T05:26:10;94747.28;;;24.35;67.02
6134;BME280;3098;42.678;23.364;2022-07-10T05:28:38;94742.06;;;24.58;66.03
6134;BME280;3098;42.678;23.364;2022-07-10T05:31:05;94746.09;;;23.78;69.11
6134;BME280;3098;42.678;23.364;2022-07-10T05:33:32;94743.53;;;24.67;66.08
6134;BME280;3098;42.678;23.364;2022-07-10T05:36:01;94739.41;;;23.96;67.84
6134;BME280;3098;42.678;23.364;2022-07-10T05:38:28;94739.00;;;24.53;65.14
6134;BME280;3098;42.678;23.364;2022-07-10T05:40:56;94753.69;;;24.59;65.94
6134;BME280;3098;42.678;23.364;2022-07-10T05:43:23;94732.47;;;23.92;67.86
6134;BME280;3098;42.678;23.364;2022-07-10T05:45:50;94748.56;;;23.33;69.74
6134;BME280;3098;42.678;23.364;2022-07-10T05:48:17;94751.31;;;24.13;67.56
6134;BME280;3098;42.678;23.364;2022-07-10T05:50:45;94751.88;;;24.90;65.42
6134;BME280;3098;42.678;23.364;2022-07-10T05:53:14;94749.13;;;24.93;65.19
6134;BME280;3098;42.678;23.364;2022-07-10T05:55:45;94749.47;;;24.54;65.87
6134;BME280;3098;42.678;23.364;2022-07-10T05:58:12;94725.63;;;24.32;65.82
6134;BME280;3098;42.678;23.364;2022-07-10T06:00:39;94745.31;;;24.39;64.00
6134;BME280;3098;42.678;23.364;2022-07-10T06:03:08;94747.47;;;24.58;63.77
6134;BME280;3098;42.678;23.364;2022-07-10T06:05:37;94746.78;;;23.92;65.40
6134;BME280;3098;42.678;23.364;2022-07-10T06:08:05;94739.31;;;24.62;64.79
6134;BME280;3098;42.678;23.364;2022-07-10T06:10:38;94753.66;;;25.75;62.47
6134;BME280;3098;42.678;23.364;2022-07-10T06:13:06;94732.69;;;25.45;59.81
6134;BME280;3098;42.678;23.364;2022-07-10T06:15:33;94680.31;;;25.14;60.91
6134;BME280;3098;42.678;23.364;2022-07-10T06:17:59;94754.94;;;25.66;59.74
6134;BME280;3098;42.678;23.364;2022-07-10T06:20:27;94670.41;;;24.59;61.63
6134;BME280;3098;42.678;23.364;2022-07-10T06:22:54;94749.28;;;24.72;61.71
6134;BME280;3098;42.678;23.364;2022-07-10T06:25:22;94742.81;;;25.03;61.74
6134;BME280;3098;42.678;23.364;2022-07-10T06:27:51;94736.47;;;24.83;61.02
6134;BME280;3098;42.678;23.364;2022-07-10T06:30:18;94746.63;;;25.13;62.30
6134;BME280;3098;42.678;23.364;2022-07-10T06:32:45;94741.81;;;25.61;58.75
6134;BME280;3098;42.678;23.364;2022-07-10T06:35:12;94734.03;;;26.20;57.42
6134;BME280;3098;42.678;23.364;2022-07-10T06:37:41;94722.13;;;26.38;55.19
6134;BME280;3098;42.678;23.364;2022-07-10T06:40:12;94723.34;;;25.46;57.34
6134;BME280;3098;42.678;23.364;2022-07-10T06:42:40;94715.50;;;25.85;55.86
6134;BME280;3098;42.678;23.364;2022-07-10T06:45:09;94740.38;;;26.37;55.52
6134;BME280;3098;42.678;23.364;2022-07-10T06:47:41;94696.22;;;26.76;53.54
6134;BME280;3098;42.678;23.364;2022-07-10T06:50:26;94711.13;;;26.21;52.13
6134;BME280;3098;42.678;23.364;2022-07-10T06:52:55;94727.38;;;26.48;52.36
6134;BME280;3098;42.678;23.364;2022-07-10T06:55:23;94719.88;;;26.33;52.74
6134;BME280;3098;42.678;23.364;2022-07-10T06:57:50;94732.19;;;25.20;55.03
6134;BME280;3098;42.678;23.364;2022-07-10T07:00:29;94672.28;;;26.44;51.45
6134;BME280;3098;42.678;23.364;2022-07-10T07:02:56;94728.44;;;27.63;48.67
6134;BME280;3098;42.678;23.364;2022-07-10T07:05:23;94671.38;;;26.97;49.46
6134;BME280;3098;42.678;23.364;2022-07-10T07:07:50;94738.78;;;26.90;50.77
6134;BME280;3098;42.678;23.364;2022-07-10T07:10:17;94676.59;;;26.88;48.32
6134;BME280;3098;42.678;23.364;2022-07-10T07:12:44;94727.31;;;28.16;46.75
6134;BME280;3098;42.678;23.364;2022-07-10T07:15:11;94705.50;;;28.48;46.76
6134;BME280;3098;42.678;23.364;2022-07-10T07:17:43;94725.03;;;28.15;45.67
6134;BME280;3098;42.678;23.364;2022-07-10T07:20:24;94726.09;;;28.01;46.76
6134;BME280;3098;42.678;23.364;2022-07-10T07:23:09;94710.97;;;27.02;48.71
6134;BME280;3098;42.678;23.364;2022-07-10T07:25:37;94706.72;;;27.60;47.44
6134;BME280;3098;42.678;23.364;2022-07-10T07:28:07;94721.31;;;26.14;51.21
6134;BME280;3098;42.678;23.364;2022-07-10T07:30:35;94728.16;;;26.72;51.19
6134;BME280;3098;42.678;23.364;2022-07-10T07:33:04;94702.25;;;27.30;50.10
6134;BME280;3098;42.678;23.364;2022-07-10T07:35:31;94694.09;;;26.17;51.70
6134;BME280;3098;42.678;23.364;2022-07-10T07:37:58;94630.81;;;26.60;51.91
6134;BME280;3098;42.678;23.364;2022-07-10T07:40:27;94721.63;;;28.59;47.93
6134;BME280;3098;42.678;23.364;2022-07-10T07:42:58;94664.84;;;28.54;46.82
6134;BME280;3098;42.678;23.364;2022-07-10T07:45:25;94712.94;;;28.64;47.29
6134;BME280;3098;42.678;23.364;2022-07-10T07:47:55;94707.38;;;28.84;46.52
6134;BME280;3098;42.678;23.364;2022-07-10T07:50:30;94715.88;;;30.51;42.61
6134;BME280;3098;42.678;23.364;2022-07-10T07:53:09;94715.03;;;29.75;44.37
6134;BME280;3098;42.678;23.364;2022-07-10T07:55:37;94695.75;;;29.53;43.56
6134;BME280;3098;42.678;23.364;2022-07-10T07:58:07;94691.44;;;29.81;43.04
6134;BME280;3098;42.678;23.364;2022-07-10T08:00:40;94701.53;;;28.98;44.60
6134;BME280;3098;42.678;23.364;2022-07-10T08:03:09;94718.88;;;28.11;48.18
6134;BME280;3098;42.678;23.364;2022-07-10T08:05:37;94650.53;;;27.10;47.22
6134;BME280;3098;42.678;23.364;2022-07-10T08:08:05;94706.75;;;28.64;44.95
6134;BME280;3098;42.678;23.364;2022-07-10T08:10:34;94715.03;;;29.62;40.97
6134;BME280;3098;42.678;23.364;2022-07-10T08:13:03;94697.25;;;28.68;41.55
6134;BME280;3098;42.678;23.364;2022-07-10T08:15:31;94675.09;;;28.95;42.21
6134;BME280;3098;42.678;23.364;2022-07-10T08:18:00;94638.03;;;29.10;40.91
6134;BME280;3098;42.678;23.364;2022-07-10T08:20:29;94710.03;;;29.86;41.31
6134;BME280;3098;42.678;23.364;2022-07-10T08:22:59;94699.53;;;28.86;41.67
6134;BME280;3098;42.678;23.364;2022-07-10T08:25:27;94701.19;;;28.35;42.03
6134;BME280;3098;42.678;23.364;2022-07-10T08:27:59;94710.75;;;27.32;44.83
6134;BME280;3098;42.678;23.364;2022-07-10T08:30:29;94699.16;;;27.28;46.21
6134;BME280;3098;42.678;23.364;2022-07-10T08:32:56;94705.16;;;28.14;45.79
6134;BME280;3098;42.678;23.364;2022-07-10T08:35:23;94711.06;;;28.29;43.10
6134;BME280;3098;42.678;23.364;2022-07-10T08:37:50;94646.03;;;26.34;46.15
6134;BME280;3098;42.678;23.364;2022-07-10T08:40:21;94722.44;;;26.90;45.29
6134;BME280;3098;42.678;23.364;2022-07-10T08:42:48;94687.91;;;26.63;45.49
6134;BME280;3098;42.678;23.364;2022-07-10T08:45:16;94722.84;;;26.15;48.17
6134;BME280;3098;42.678;23.364;2022-07-10T08:47:43;94692.38;;;26.00;48.72
6134;BME280;3098;42.678;23.364;2022-07-10T08:50:17;94706.56;;;26.11;48.47
6134;BME280;3098;42.678;23.364;2022-07-10T08:52:51;94689.59;;;26.04;48.09
6134;BME280;3098;42.678;23.364;2022-07-10T08:55:28;94483.78;;;24.51;49.63
6134;BME280;3098;42.678;23.364;2022-07-10T08:57:55;94702.16;;;25.94;49.53
6134;BME280;3098;42.678;23.364;2022-07-10T09:00:23;94710.97;;;27.61;45.50
6134;BME280;3098;42.678;23.364;2022-07-10T09:02:50;94694.16;;;28.82;42.38
6134;BME280;3098;42.678;23.364;2022-07-10T09:05:17;94697.47;;;30.27;39.45
6134;BME280;3098;42.678;23.364;2022-07-10T09:07:45;94698.50;;;29.25;39.98
6134;BME280;3098;42.678;23.364;2022-07-10T09:10:12;94703.38;;;29.87;38.01
6134;BME280;3098;42.678;23.364;2022-07-10T09:12:56;94663.56;;;28.75;40.18
6134;BME280;3098;42.678;23.364;2022-07-10T09:15:26;94690.16;;;29.16;40.49
6134;BME280;3098;42.678;23.364;2022-07-10T09:17:57;94700.19;;;29.06;40.67
6134;BME280;3098;42.678;23.364;2022-07-10T09:20:30;94675.34;;;28.39;41.17
6134;BME280;3098;42.678;23.364;2022-07-10T09:22:59;94668.53;;;28.92;41.46
6134;BME280;3098;42.678;23.364;2022-07-10T09:25:32;94678.09;;;30.08;38.32
6134;BME280;3098;42.678;23.364;2022-07-10T09:28:01;94684.94;;;30.76;36.56
6134;BME280;3098;42.678;23.364;2022-07-10T09:30:36;94670.88;;;29.77;38.00
6134;BME280;3098;42.678;23.364;2022-07-10T09:33:21;94643.84;;;29.79;38.60
6134;BME280;3098;42.678;23.364;2022-07-10T09:36:05;94665.47;;;29.48;39.70
6134;BME280;3098;42.678;23.364;2022-07-10T09:38:51;94688.63;;;29.15;40.83
6134;BME280;3098;42.678;23.364;2022-07-10T09:41:21;94634.69;;;28.90;38.78
6134;BME280;3098;42.678;23.364;2022-07-10T09:43:51;94663.34;;;30.18;37.75
6134;BME280;3098;42.678;23.364;2022-07-10T09:46:20;94653.09;;;28.09;40.69
6134;BME280;3098;42.678;23.364;2022-07-10T09:48:48;94683.31;;;27.98;41.70
6134;BME280;3098;42.678;23.364;2022-07-10T09:51:16;94613.81;;;26.99;43.34
6134;BME280;3098;42.678;23.364;2022-07-10T09:53:43;94675.50;;;26.12;46.84
6134;BME280;3098;42.678;23.364;2022-07-10T09:56:12;94642.66;;;24.86;49.65
6134;BME280;3098;42.678;23.364;2022-07-10T09:58:39;94669.75;;;26.80;44.47
6134;BME280;3098;42.678;23.364;2022-07-10T10:01:08;94666.69;;;27.37;42.83
6134;BME280;3098;42.678;23.364;2022-07-10T10:03:36;94673.25;;;27.59;42.15
6134;BME280;3098;42.678;23.364;2022-07-10T10:06:10;94660.66;;;28.01;40.62
6134;BME280;3098;42.678;23.364;2022-07-10T10:08:45;94585.06;;;25.62;45.55
6134;BME280;3098;42.678;23.364;2022-07-10T10:11:16;94648.91;;;27.52;42.55
6134;BME280;3098;42.678;23.364;2022-07-10T10:13:46;94635.56;;;27.74;41.98
6134;BME280;3098;42.678;23.364;2022-07-10T10:16:19;94625.88;;;28.53;40.78
6134;BME280;3098;42.678;23.364;2022-07-10T10:18:46;94589.63;;;27.56;41.07
6134;BME280;3098;42.678;23.364;2022-07-10T10:21:32;94658.03;;;28.30;40.07
6134;BME280;3098;42.678;23.364;2022-07-10T10:24:01;94663.13;;;28.60;39.89
6134;BME280;3098;42.678;23.364;2022-07-10T10:26:28;94655.09;;;29.43;37.26
6134;BME280;3098;42.678;23.364;2022-07-10T10:28:57;94422.94;;;28.76;35.52
6134;BME280;3098;42.678;23.364;2022-07-10T10:31:28;94632.50;;;29.80;35.80
6134;BME280;3098;42.678;23.364;2022-07-10T10:33:57;94649.50;;;28.44;39.23
6134;BME280;3098;42.678;23.364;2022-07-10T10:36:44;94604.38;;;27.03;41.90
6134;BME280;3098;42.678;23.364;2022-07-10T10:39:12;94648.78;;;27.36;42.89
6134;BME280;3098;42.678;23.364;2022-07-10T10:41:42;94636.72;;;26.78;43.15
6134;BME280;3098;42.678;23.364;2022-07-10T10:44:28;94618.41;;;25.32;46.28
6134;BME280;3098;42.678;23.364;2022-07-10T10:47:03;94575.25;;;25.41;47.31
6134;BME280;3098;42.678;23.364;2022-07-10T10:49:52;94599.03;;;25.60;46.76
6134;BME280;3098;42.678;23.364;2022-07-10T10:52:22;94608.88;;;25.78;46.29
6134;BME280;3098;42.678;23.364;2022-07-10T10:55:02;94639.63;;;25.98;46.32
6134;BME280;3098;42.678;23.364;2022-07-10T10:57:51;94638.88;;;25.70;46.95
6134;BME280;3098;42.678;23.364;2022-07-10T11:00:34;94636.84;;;25.75;46.71
6134;BME280;3098;42.678;23.364;2022-07-10T11:03:18;94602.22;;;25.55;47.99
6134;BME280;3098;42.678;23.364;2022-07-10T11:05:47;94619.72;;;26.04;46.21
6134;BME280;3098;42.678;23.364;2022-07-10T11:08:36;94594.28;;;26.18;46.56
6134;BME280;3098;42.678;23.364;2022-07-10T11:14:05;94603.56;;;25.40;46.73
6134;BME280;3098;42.678;23.364;2022-07-10T11:16:33;94623.28;;;25.75;46.60
6134;BME280;3098;42.678;23.364;2022-07-10T11:19:02;94622.53;;;25.97;46.28
6134;BME280;3098;42.678;23.364;2022-07-10T11:21:45;94627.25;;;25.40;48.35
6134;BME280;3098;42.678;23.364;2022-07-10T11:24:33;94574.69;;;24.96;48.59
6134;BME280;3098;42.678;23.364;2022-07-10T11:27:15;94596.78;;;24.95;48.87
6134;BME280;3098;42.678;23.364;2022-07-10T11:29:43;94575.78;;;24.31;51.03
6134;BME280;3098;42.678;23.364;2022-07-10T11:32:16;94623.59;;;24.89;51.31
6134;BME280;3098;42.678;23.364;2022-07-10T11:34:44;94615.88;;;24.50;50.70
6134;BME280;3098;42.678;23.364;2022-07-10T11:37:15;94629.91;;;23.94;51.58
6134;BME280;3098;42.678;23.364;2022-07-10T11:39:43;94618.22;;;23.53;52.08
6134;BME280;3098;42.678;23.364;2022-07-10T11:42:10;94630.38;;;23.82;51.91
6134;BME280;3098;42.678;23.364;2022-07-10T11:44:37;94620.91;;;24.04;51.94
6134;BME280;3098;42.678;23.364;2022-07-10T11:47:05;94629.56;;;24.36;51.25
6134;BME280;3098;42.678;23.364;2022-07-10T11:49:33;94632.91;;;24.07;50.25
6134;BME280;3098;42.678;23.364;2022-07-10T11:52:03;94509.09;;;23.01;51.24
6134;BME280;3098;42.678;23.364;2022-07-10T11:54:32;94514.84;;;23.06;50.15
6134;BME280;3098;42.678;23.364;2022-07-10T11:57:05;94608.81;;;23.68;49.48
6134;BME280;3098;42.678;23.364;2022-07-10T11:59:33;94619.41;;;24.44;50.58
6134;BME280;3098;42.678;23.364;2022-07-10T12:02:00;94622.13;;;25.15;48.41
6134;BME280;3098;42.678;23.364;2022-07-10T12:04:29;94622.94;;;25.42;45.93
6134;BME280;3098;42.678;23.364;2022-07-10T12:06:59;94624.28;;;24.59;47.07
6134;BME280;3098;42.678;23.364;2022-07-10T12:09:29;94604.94;;;25.25;48.83
6134;BME280;3098;42.678;23.364;2022-07-10T12:12:07;94630.09;;;25.29;47.24
6134;BME280;3098;42.678;23.364;2022-07-10T12:14:36;94627.56;;;25.99;45.34
6134;BME280;3098;42.678;23.364;2022-07-10T12:17:11;94617.44;;;25.46;46.09
6134;BME280;3098;42.678;23.364;2022-07-10T12:19:39;94622.41;;;24.94;48.45
6134;BME280;3098;42.678;23.364;2022-07-10T12:22:08;94579.22;;;24.35;49.38
6134;BME280;3098;42.678;23.364;2022-07-10T12:24:38;94620.38;;;24.64;49.33
6134;BME280;3098;42.678;23.364;2022-07-10T12:27:05;94624.84;;;24.78;48.76
6134;BME280;3098;42.678;23.364;2022-07-10T12:29:38;94622.78;;;24.92;47.58
6134;BME280;3098;42.678;23.364;2022-07-10T12:32:07;94598.34;;;24.58;47.38
6134;BME280;3098;42.678;23.364;2022-07-10T12:34:34;94623.28;;;24.84;48.41
6134;BME280;3098;42.678;23.364;2022-07-10T12:37:07;94599.28;;;24.45;46.61
6134;BME280;3098;42.678;23.364;2022-07-10T12:39:49;94604.22;;;24.53;46.58
6134;BME280;3098;42.678;23.364;2022-07-10T12:42:24;94633.41;;;24.76;47.97
6134;BME280;3098;42.678;23.364;2022-07-10T12:44:52;94585.22;;;24.16;45.97
6134;BME280;3098;42.678;23.364;2022-07-10T12:47:20;94623.88;;;24.61;45.24
6134;BME280;3098;42.678;23.364;2022-07-10T12:49:49;94625.69;;;24.75;44.82
6134;BME280;3098;42.678;23.364;2022-07-10T12:52:25;94617.44;;;24.89;44.49
6134;BME280;3098;42.678;23.364;2022-07-10T12:55:11;94566.63;;;24.18;45.15
6134;BME280;3098;42.678;23.364;2022-07-10T12:57:50;94623.50;;;24.63;45.96
6134;BME280;3098;42.678;23.364;2022-07-10T13:00:20;94584.50;;;24.49;43.72
6134;BME280;3098;42.678;23.364;2022-07-10T13:02:49;94622.78;;;24.92;43.25
6134;BME280;3098;42.678;23.364;2022-07-10T13:05:31;94627.09;;;24.90;43.71
6134;BME280;3098;42.678;23.364;2022-07-10T13:08:11;94570.28;;;24.38;43.33
6134;BME280;3098;42.678;23.364;2022-07-10T13:10:44;94622.91;;;24.82;41.96
6134;BME280;3098;42.678;23.364;2022-07-10T13:13:12;94515.03;;;23.88;44.40
6134;BME280;3098;42.678;23.364;2022-07-10T13:15:39;94609.59;;;24.16;47.07
6134;BME280;3098;42.678;23.364;2022-07-10T13:18:13;94608.31;;;24.31;48.27
6134;BME280;3098;42.678;23.364;2022-07-10T13:20:40;94619.38;;;24.88;47.78
6134;BME280;3098;42.678;23.364;2022-07-10T13:23:07;94574.84;;;24.48;45.38
6134;BME280;3098;42.678;23.364;2022-07-10T13:25:36;94613.28;;;24.74;41.55